Time;durP1;ratioP1;P1;durP2;ratioP2;P2;SDS_P1;SDS_P2;PMS_P1;PMS_P2;Temp;Humidity;BMP_temperature;BMP_pressure;BME280_temperature;BME280_humidity;BME280_pressure;Samples;Min_cycle;Max_cycle;Signal;HPM_P1;HPM_P2
2023/07/30 00:00:24;;;;;;;4.70;2.65;;;;;;;18.17;80.12;92635.94;2044561;70;20143;-85
2023/07/30 00:02:50;;;;;;;5.28;2.40;;;;;;;18.17;79.97;92632.34;2044776;70;20162;-85
2023/07/30 00:05:15;;;;;;;4.07;2.72;;;;;;;18.10;79.78;92639.25;2040463;70;20579;-85
2023/07/30 00:07:41;;;;;;;6.10;2.70;;;;;;;17.86;82.99;92637.06;2044465;70;20161;-85
2023/07/30 00:10:09;;;;;;;5.07;2.80;;;;;;;17.67;84.78;92635.69;2041379;70;20155;-85
2023/07/30 00:12:35;;;;;;;5.22;2.50;;;;;;;17.99;82.48;92626.81;2044442;70;20165;-85
2023/07/30 00:15:01;;;;;;;7.07;2.58;;;;;;;18.09;81.58;92615.00;2040857;70;20145;-85
2023/07/30 00:17:26;;;;;;;5.57;2.55;;;;;;;17.91;82.23;92603.75;2041144;70;20147;-85
2023/07/30 00:19:52;;;;;;;8.68;2.90;;;;;;;17.63;83.97;92615.63;2044365;70;20167;-85
2023/07/30 00:22:17;;;;;;;5.43;2.85;;;;;;;17.86;83.40;92617.13;2044490;70;20139;-86
2023/07/30 00:24:43;;;;;;;7.22;2.40;;;;;;;17.94;81.99;92613.81;2044357;70;20250;-85
2023/07/30 00:27:09;;;;;;;6.53;2.63;;;;;;;18.02;81.08;92620.50;2044512;70;20147;-86
2023/07/30 00:29:34;;;;;;;5.53;2.70;;;;;;;18.11;80.82;92635.03;2038489;70;20593;-86
2023/07/30 00:32:00;;;;;;;6.60;3.00;;;;;;;18.05;81.79;92621.28;2041321;70;20529;-86
2023/07/30 00:34:26;;;;;;;6.72;3.05;;;;;;;18.10;81.16;92625.00;2041108;70;20186;-86
2023/07/30 00:36:51;;;;;;;4.25;2.22;;;;;;;18.03;81.08;92616.25;2041027;70;20549;-86
2023/07/30 00:39:17;;;;;;;4.40;2.38;;;;;;;18.04;80.38;92617.00;2044258;70;20685;-87
2023/07/30 00:41:43;;;;;;;6.00;2.38;;;;;;;17.88;82.48;92617.22;2044580;70;20174;-87
2023/07/30 00:44:11;;;;;;;5.97;2.58;;;;;;;17.96;81.96;92622.41;2041431;70;20138;-86
2023/07/30 00:46:37;;;;;;;4.60;2.58;;;;;;;17.92;82.68;92619.47;2041275;70;20280;-86
2023/07/30 00:49:03;;;;;;;7.57;2.85;;;;;;;17.83;81.60;92626.28;2044475;70;20696;-86
2023/07/30 00:51:31;;;;;;;3.83;2.47;;;;;;;17.60;83.57;92624.78;2044209;70;20581;-85
2023/07/30 00:53:57;;;;;;;9.35;2.92;;;;;;;17.71;82.47;92618.75;2044199;70;20226;-87
2023/07/30 00:56:22;;;;;;;5.47;2.85;;;;;;;17.85;82.37;92607.13;2040959;70;20344;-86
2023/07/30 00:58:48;;;;;;;4.82;2.60;;;;;;;17.70;82.06;92602.34;2040724;70;20644;-86
2023/07/30 01:01:15;;;;;;;6.75;2.75;;;;;;;17.43;85.03;92618.53;2044131;70;20182;-85
2023/07/30 01:03:41;;;;;;;4.95;2.70;;;;;;;17.35;86.66;92617.53;2044109;70;20151;-86
2023/07/30 01:06:07;;;;;;;3.33;2.38;;;;;;;17.47;85.53;92601.59;2043969;70;20600;-87
2023/07/30 01:08:33;;;;;;;5.65;2.40;;;;;;;17.53;85.23;92615.31;2040771;70;20238;-87
2023/07/30 01:10:59;;;;;;;3.85;2.72;;;;;;;17.42;85.64;92630.59;2040679;70;20171;-86
2023/07/30 01:13:27;;;;;;;8.50;2.78;;;;;;;17.25;86.33;92634.97;2041059;70;20155;-86
2023/07/30 01:15:53;;;;;;;6.85;2.85;;;;;;;17.57;85.38;92641.06;2040855;70;20545;-85
2023/07/30 01:18:19;;;;;;;9.55;2.50;;;;;;;17.67;83.19;92657.75;2045642;70;20147;-86
2023/07/30 01:20:44;;;;;;;5.72;2.30;;;;;;;17.73;83.64;92664.44;2041773;70;20151;-87
2023/07/30 01:23:11;;;;;;;3.55;2.45;;;;;;;17.88;82.00;92674.16;2044885;70;20535;-87
2023/07/30 01:25:37;;;;;;;5.07;2.47;;;;;;;17.93;81.50;92670.06;2045008;70;20170;-86
2023/07/30 01:28:05;;;;;;;4.47;2.50;;;;;;;17.89;82.04;92677.75;2044796;70;20183;-84
2023/07/30 01:30:38;;;;;;;7.10;2.72;;;;;;;17.91;81.75;92675.66;2044799;70;20147;-86
2023/07/30 01:33:05;;;;;;;4.80;2.40;;;;;;;17.74;83.22;92673.69;2041368;70;20234;-86
2023/07/30 01:35:31;;;;;;;2.95;2.35;;;;;;;17.68;83.41;92679.13;2044713;70;20230;-86
2023/07/30 01:37:57;;;;;;;3.22;2.20;;;;;;;17.58;84.68;92685.22;2041494;70;20584;-86
2023/07/30 01:40:23;;;;;;;4.85;2.70;;;;;;;17.70;83.81;92688.47;2044784;70;20166;-86
2023/07/30 01:42:49;;;;;;;3.33;2.35;;;;;;;17.80;82.59;92696.66;2044843;70;20151;-87
2023/07/30 01:45:16;;;;;;;4.75;2.17;;;;;;;17.90;82.86;92711.25;2041026;70;20544;-86
2023/07/30 01:47:42;;;;;;;5.00;2.50;;;;;;;17.93;80.71;92692.84;2041219;70;20162;-87
2023/07/30 01:50:08;;;;;;;8.20;2.63;;;;;;;17.57;84.57;92680.91;2044564;70;20161;-85
2023/07/30 01:52:34;;;;;;;6.00;2.90;;;;;;;17.37;86.42;92671.69;2041534;70;20589;-84
2023/07/30 01:55:00;;;;;;;3.88;2.50;;;;;;;17.54;85.88;92653.75;2044378;70;20696;-85
2023/07/30 01:57:27;;;;;;;5.43;2.53;;;;;;;17.72;83.25;92648.69;2038708;70;20490;-85
2023/07/30 01:59:52;;;;;;;5.15;2.65;;;;;;;17.66;84.17;92647.75;2040887;70;20136;-85
2023/07/30 02:02:18;;;;;;;3.88;2.55;;;;;;;17.74;83.67;92651.63;2040767;70;20155;-85
2023/07/30 02:04:43;;;;;;;5.22;2.67;;;;;;;17.77;83.08;92641.03;2040903;70;20226;-85
2023/07/30 02:07:09;;;;;;;7.07;2.33;;;;;;;17.46;85.38;92639.28;2041171;70;20140;-85
2023/07/30 02:09:35;;;;;;;4.10;2.28;;;;;;;17.67;83.22;92635.69;2041502;70;20654;-85
2023/07/30 02:12:01;;;;;;;4.80;2.17;;;;;;;17.74;82.86;92639.53;2040773;70;20140;-87
2023/07/30 02:14:27;;;;;;;2.60;2.10;;;;;;;17.47;85.46;92637.88;2040917;70;20152;-84
2023/07/30 02:16:52;;;;;;;2.55;1.90;;;;;;;17.51;82.51;92635.16;2041318;70;20171;-84
2023/07/30 02:19:18;;;;;;;4.75;2.00;;;;;;;17.56;83.50;92624.66;2041516;70;20147;-84
2023/07/30 02:21:44;;;;;;;5.97;1.90;;;;;;;17.63;83.73;92627.03;2041314;70;20244;-85
2023/07/30 02:24:11;;;;;;;9.55;2.40;;;;;;;17.61;84.40;92612.00;2041828;70;20211;-86
2023/07/30 02:26:40;;;;;;;3.50;1.80;;;;;;;17.67;83.77;92618.63;2041804;70;20159;-85
2023/07/30 02:29:06;;;;;;;3.42;1.80;;;;;;;17.64;83.63;92614.28;2041644;70;20178;-85
2023/07/30 02:31:32;;;;;;;4.22;2.00;;;;;;;17.64;83.36;92619.22;2040646;70;20606;-86
2023/07/30 02:33:57;;;;;;;9.02;1.80;;;;;;;17.60;83.37;92622.66;2041562;70;20150;-87
2023/07/30 02:36:24;;;;;;;4.88;1.50;;;;;;;17.62;83.03;92628.41;2041514;70;20158;-85
2023/07/30 02:38:50;;;;;;;4.28;1.45;;;;;;;17.48;85.09;92625.81;2040839;70;20207;-85
2023/07/30 02:41:16;;;;;;;4.00;1.38;;;;;;;17.42;83.96;92619.22;2040517;70;20179;-85
2023/07/30 02:43:43;;;;;;;2.65;1.35;;;;;;;17.36;83.91;92607.59;2041199;70;20627;-85
2023/07/30 02:46:09;;;;;;;3.50;1.40;;;;;;;17.53;82.66;92624.56;2040657;70;20169;-85
2023/07/30 02:48:34;;;;;;;4.80;1.40;;;;;;;17.51;83.07;92624.50;2041051;70;20509;-84
2023/07/30 02:51:00;;;;;;;3.75;2.33;;;;;;;17.29;85.06;92626.59;2040473;70;20162;-85
2023/07/30 02:53:26;;;;;;;5.65;2.05;;;;;;;17.49;83.86;92635.81;2041047;70;20584;-85
2023/07/30 02:55:52;;;;;;;5.50;2.00;;;;;;;17.57;83.55;92637.50;2041060;70;20147;-84
2023/07/30 02:58:17;;;;;;;4.78;2.20;;;;;;;17.49;83.57;92641.50;2040081;70;20166;-85
2023/07/30 03:00:43;;;;;;;4.35;1.85;;;;;;;17.47;84.25;92644.28;2040423;70;20175;-85
2023/07/30 03:03:09;;;;;;;4.65;2.17;;;;;;;17.49;83.84;92643.63;2040914;70;20187;-85
2023/07/30 03:05:34;;;;;;;2.90;1.90;;;;;;;17.56;83.50;92639.59;2041000;70;20242;-85
2023/07/30 03:08:00;;;;;;;4.85;2.08;;;;;;;17.59;81.75;92632.56;2037657;70;20140;-85
2023/07/30 03:10:25;;;;;;;4.53;2.08;;;;;;;17.53;83.09;92630.25;2041033;70;20151;-85
2023/07/30 03:12:51;;;;;;;4.72;2.05;;;;;;;17.52;83.73;92640.19;2041369;70;20143;-86
2023/07/30 03:15:17;;;;;;;2.63;1.80;;;;;;;17.48;83.52;92634.34;2041570;70;20156;-85
2023/07/30 03:17:42;;;;;;;3.95;1.95;;;;;;;17.41;84.14;92629.09;2041671;70;20625;-85
2023/07/30 03:20:08;;;;;;;3.92;1.80;;;;;;;17.43;84.20;92635.63;2041195;70;20246;-85
2023/07/30 03:22:34;;;;;;;3.38;1.60;;;;;;;17.44;83.76;92637.06;2041640;70;20209;-85
2023/07/30 03:25:00;;;;;;;3.50;2.00;;;;;;;17.26;84.12;92630.75;2041752;70;20226;-85
2023/07/30 03:27:25;;;;;;;3.15;1.70;;;;;;;17.28;84.11;92631.56;2041185;70;20157;-85
2023/07/30 03:29:51;;;;;;;4.20;1.70;;;;;;;17.22;85.10;92644.81;2041541;70;20264;-85
2023/07/30 03:32:17;;;;;;;4.05;1.45;;;;;;;17.19;84.65;92649.00;2041107;70;20171;-86
2023/07/30 03:34:42;;;;;;;6.00;1.58;;;;;;;17.19;84.65;92646.88;2041655;70;20181;-86
2023/07/30 03:37:08;;;;;;;3.70;2.10;;;;;;;17.25;82.61;92652.78;2041629;70;20152;-86
2023/07/30 03:39:33;;;;;;;7.60;2.33;;;;;;;17.23;83.89;92649.88;2040872;70;20146;-86
2023/07/30 03:41:59;;;;;;;4.20;1.63;;;;;;;17.33;83.43;92665.84;2041060;70;20231;-85
2023/07/30 03:44:25;;;;;;;4.43;1.60;;;;;;;17.12;84.30;92653.00;2040897;70;20152;-85
2023/07/30 03:46:50;;;;;;;5.20;2.00;;;;;;;17.23;84.58;92657.69;2041545;70;20210;-86
2023/07/30 03:49:16;;;;;;;3.38;1.70;;;;;;;17.33;83.57;92660.88;2041592;70;20151;-85
2023/07/30 03:51:42;;;;;;;5.70;1.80;;;;;;;17.33;83.10;92669.41;2041579;70;20230;-85
2023/07/30 03:54:08;;;;;;;2.95;2.00;;;;;;;17.30;84.17;92673.56;2041513;70;20282;-85
2023/07/30 03:56:33;;;;;;;3.53;1.88;;;;;;;17.31;84.64;92694.19;2041006;70;20179;-85
2023/07/30 03:58:59;;;;;;;5.50;1.90;;;;;;;17.33;83.31;92682.91;2041531;70;20179;-85
2023/07/30 04:01:25;;;;;;;3.85;1.70;;;;;;;17.35;83.38;92694.34;2040937;70;20506;-85
2023/07/30 04:03:50;;;;;;;4.40;2.00;;;;;;;17.44;81.85;92696.09;2040964;70;20152;-85
2023/07/30 04:06:16;;;;;;;5.75;2.17;;;;;;;17.38;82.07;92704.44;2040892;70;20139;-85
2023/07/30 04:08:42;;;;;;;4.70;2.50;;;;;;;17.47;83.12;92704.06;2041466;70;20207;-85
2023/07/30 04:11:08;;;;;;;2.70;2.03;;;;;;;17.38;84.01;92698.75;2041452;70;20147;-85
2023/07/30 04:13:34;;;;;;;5.95;2.42;;;;;;;17.22;85.44;92707.41;2040867;70;20143;-85
2023/07/30 04:16:00;;;;;;;6.57;2.10;;;;;;;17.38;84.48;92698.75;2041503;70;20274;-85
2023/07/30 04:18:25;;;;;;;5.38;2.13;;;;;;;17.45;84.18;92700.41;2041277;70;20155;-85
2023/07/30 04:20:55;;;;;;;5.60;2.00;;;;;;;17.46;84.19;92699.75;2040931;70;20151;-85
2023/07/30 04:23:21;;;;;;;7.55;2.08;;;;;;;17.42;84.60;92705.31;2041467;70;20158;-84
2023/07/30 04:25:49;;;;;;;4.07;1.98;;;;;;;17.47;84.12;92703.34;2041725;70;20144;-85
2023/07/30 04:28:15;;;;;;;5.03;2.00;;;;;;;17.44;84.17;92711.06;2040873;70;20152;-84
2023/07/30 04:30:40;;;;;;;2.50;1.90;;;;;;;17.46;84.56;92707.56;2041551;70;20151;-84
2023/07/30 04:33:06;;;;;;;2.45;1.80;;;;;;;17.35;84.40;92706.47;2040913;70;20493;-84
2023/07/30 04:35:34;;;;;;;8.57;2.10;;;;;;;17.12;86.62;92713.44;2040977;70;20676;-85
2023/07/30 04:37:59;;;;;;;3.83;2.15;;;;;;;17.33;85.49;92697.88;2041450;70;20154;-86
2023/07/30 04:40:26;;;;;;;3.90;2.03;;;;;;;17.42;84.52;92701.72;2041014;70;20179;-85
2023/07/30 04:42:51;;;;;;;2.55;2.08;;;;;;;17.49;84.58;92697.69;2040887;70;20214;-84
2023/07/30 04:45:17;;;;;;;3.13;2.20;;;;;;;17.54;83.92;92700.03;2040874;70;20616;-85
2023/07/30 04:47:45;;;;;;;5.05;2.03;;;;;;;17.51;82.47;92694.94;2040978;70;20152;-86
2023/07/30 04:50:11;;;;;;;5.50;2.08;;;;;;;17.49;84.19;92703.38;2041082;70;20215;-86
2023/07/30 04:52:37;;;;;;;6.88;2.38;;;;;;;17.54;83.98;92700.03;2041627;70;20144;-85
2023/07/30 04:55:02;;;;;;;4.63;2.25;;;;;;;17.52;83.75;92685.00;2041517;70;20151;-86
2023/07/30 04:57:28;;;;;;;4.25;2.40;;;;;;;17.36;84.52;92681.56;2040905;70;20154;-86
2023/07/30 04:59:54;;;;;;;3.58;2.30;;;;;;;17.34;83.57;92682.25;2042177;70;20175;-86
2023/07/30 05:02:19;;;;;;;7.88;2.88;;;;;;;17.10;86.63;92681.38;2038853;70;20158;-84
2023/07/30 05:04:45;;;;;;;4.40;2.60;;;;;;;16.97;87.76;92672.41;2044722;70;20147;-84
2023/07/30 05:07:10;;;;;;;4.85;2.08;;;;;;;17.03;86.31;92666.19;2044747;70;20210;-84
2023/07/30 05:09:36;;;;;;;4.22;2.00;;;;;;;17.27;84.79;92675.63;2044825;70;20218;-85
2023/07/30 05:12:02;;;;;;;3.55;1.85;;;;;;;17.15;84.59;92677.28;2044688;70;20230;-84
2023/07/30 05:14:27;;;;;;;5.80;1.92;;;;;;;17.06;85.72;92670.59;2044966;70;20611;-86
2023/07/30 05:16:53;;;;;;;3.17;1.90;;;;;;;16.99;86.34;92680.25;2045191;70;20208;-84
2023/07/30 05:19:18;;;;;;;2.83;1.88;;;;;;;17.11;85.73;92677.16;2044647;70;20135;-86
2023/07/30 05:21:44;;;;;;;2.33;1.77;;;;;;;17.23;85.87;92678.31;2044622;70;20143;-83
2023/07/30 05:24:10;;;;;;;4.38;1.63;;;;;;;17.18;85.44;92662.50;2041655;70;20565;-84
2023/07/30 05:26:35;;;;;;;2.83;1.80;;;;;;;16.98;86.53;92670.28;2044760;70;20151;-84
2023/07/30 05:29:01;;;;;;;4.10;1.77;;;;;;;17.10;85.92;92676.41;2041475;70;20201;-84
2023/07/30 05:31:28;;;;;;;5.32;2.30;;;;;;;17.25;84.52;92684.06;2044706;70;20544;-84
2023/07/30 05:33:53;;;;;;;8.00;2.17;;;;;;;17.27;83.27;92683.41;2044610;70;20178;-83
2023/07/30 05:36:19;;;;;;;3.75;2.42;;;;;;;17.34;85.03;92692.91;2044605;70;20143;-83
2023/07/30 05:38:44;;;;;;;3.80;2.30;;;;;;;17.67;82.96;92706.16;2044569;70;20520;-82
2023/07/30 05:41:10;;;;;;;4.03;2.10;;;;;;;17.81;82.92;92715.19;2044636;70;20525;-82
2023/07/30 05:43:35;;;;;;;5.25;3.83;;;;;;;17.69;83.66;92717.63;2044403;70;20217;-82
2023/07/30 05:46:02;;;;;;;3.28;2.13;;;;;;;17.73;83.57;92720.59;2044485;70;20158;-84
2023/07/30 05:48:28;;;;;;;2.95;2.38;;;;;;;17.92;83.31;92716.28;2044543;70;20234;-83
2023/07/30 05:50:55;;;;;;;5.50;2.80;;;;;;;18.02;82.28;92725.91;2044397;70;20524;-84
2023/07/30 05:53:20;;;;;;;3.85;2.30;;;;;;;18.14;82.11;92722.72;2044679;70;20601;-85
2023/07/30 05:55:46;;;;;;;4.68;2.60;;;;;;;18.07;82.30;92720.34;2044719;70;20608;-84
2023/07/30 05:58:12;;;;;;;2.70;1.90;;;;;;;18.16;82.71;92722.78;2041632;70;20139;-84
2023/07/30 06:00:39;;;;;;;6.25;2.20;;;;;;;18.24;82.48;92734.47;2044845;70;20222;-84
2023/07/30 06:03:06;;;;;;;3.95;1.67;;;;;;;18.21;82.95;92724.38;2045336;70;20143;-84
2023/07/30 06:05:31;;;;;;;2.40;1.60;;;;;;;18.16;83.65;92734.19;2045370;70;20155;-84
2023/07/30 06:07:57;;;;;;;1.90;1.70;;;;;;;18.20;82.81;92731.47;2044640;70;20143;-84
2023/07/30 06:10:22;;;;;;;2.13;1.63;;;;;;;18.33;82.94;92714.78;2044926;70;20147;-84
2023/07/30 06:12:48;;;;;;;3.65;1.67;;;;;;;17.99;83.81;92709.41;2044936;70;20666;-84
2023/07/30 06:15:13;;;;;;;3.92;2.13;;;;;;;18.13;82.37;92729.09;2044591;70;20251;-84
2023/07/30 06:17:40;;;;;;;8.80;5.50;;;;;;;18.03;82.29;92713.09;2044039;70;20168;-83
2023/07/30 06:20:07;;;;;;;4.40;2.30;;;;;;;18.10;83.13;92704.75;2044086;70;20167;-84
2023/07/30 06:22:32;;;;;;;5.70;1.95;;;;;;;18.39;81.21;92707.16;2043880;70;20238;-84
2023/07/30 06:24:58;;;;;;;3.58;1.80;;;;;;;18.67;81.53;92709.44;2043388;70;20155;-84
2023/07/30 06:27:23;;;;;;;4.00;2.17;;;;;;;18.21;82.22;92704.44;2043553;70;20194;-84
2023/07/30 06:29:49;;;;;;;3.85;1.88;;;;;;;18.38;80.65;92699.28;2042990;70;20147;-84
2023/07/30 06:32:15;;;;;;;3.13;1.88;;;;;;;18.45;80.47;92707.34;2044304;70;20151;-84
2023/07/30 06:34:40;;;;;;;4.90;1.75;;;;;;;18.63;80.42;92706.47;2044203;70;20568;-84
2023/07/30 06:37:06;;;;;;;2.78;2.45;;;;;;;18.72;81.11;92716.75;2044208;70;20205;-84
2023/07/30 06:39:34;;;;;;;4.65;1.90;;;;;;;18.74;81.21;92703.28;2044501;70;20206;-84
2023/07/30 06:41:59;;;;;;;4.15;1.80;;;;;;;18.85;81.08;92715.00;2044960;70;20139;-84
2023/07/30 06:44:27;;;;;;;3.53;1.77;;;;;;;18.86;81.13;92699.34;2044794;70;20139;-83
2023/07/30 06:46:52;;;;;;;2.35;1.60;;;;;;;18.99;81.62;92695.47;2045124;70;20664;-84
2023/07/30 06:49:18;;;;;;;3.03;1.55;;;;;;;19.11;79.94;92703.66;2044420;70;20153;-85
2023/07/30 06:51:43;;;;;;;2.40;1.45;;;;;;;19.20;80.31;92691.81;2044936;70;20161;-85
2023/07/30 06:54:09;;;;;;;4.15;1.70;;;;;;;19.15;80.87;92710.22;2044951;70;20135;-85
2023/07/30 06:56:34;;;;;;;3.72;1.98;;;;;;;19.04;80.72;92712.03;2044880;70;20686;-86
2023/07/30 06:59:02;;;;;;;4.47;1.77;;;;;;;19.13;77.89;92721.56;2044854;70;20625;-84
2023/07/30 07:01:27;;;;;;;4.03;2.03;;;;;;;19.17;79.41;92733.09;2044901;70;20601;-84
2023/07/30 07:03:53;;;;;;;2.15;1.63;;;;;;;19.22;80.15;92734.66;2045051;70;20182;-84
2023/07/30 07:06:19;;;;;;;3.35;1.70;;;;;;;19.17;80.67;92747.34;2041566;70;20151;-84
2023/07/30 07:08:44;;;;;;;3.35;1.80;;;;;;;19.29;79.61;92747.72;2045070;70;20623;-84
2023/07/30 07:11:10;;;;;;;5.55;1.70;;;;;;;19.38;80.01;92762.22;2044863;70;20147;-83
2023/07/30 07:13:35;;;;;;;1.95;1.65;;;;;;;19.41;79.57;92761.59;2044971;70;20147;-82
2023/07/30 07:16:01;;;;;;;3.60;1.70;;;;;;;19.36;81.30;92754.31;2044886;70;20143;-82
2023/07/30 07:18:28;;;;;;;5.80;2.13;;;;;;;19.41;81.21;92758.75;2044552;70;20625;-83
2023/07/30 07:20:53;;;;;;;3.03;1.73;;;;;;;19.64;79.77;92757.28;2041718;70;20274;-84
2023/07/30 07:23:19;;;;;;;4.10;1.80;;;;;;;19.82;79.11;92762.06;2044978;70;20520;-84
2023/07/30 07:25:44;;;;;;;4.30;3.05;;;;;;;19.51;79.21;92766.88;2044932;70;20151;-83
2023/07/30 07:28:10;;;;;;;7.47;2.95;;;;;;;19.67;78.96;92767.38;2044813;70;20143;-83
2023/07/30 07:30:36;;;;;;;4.38;2.35;;;;;;;19.47;78.49;92758.19;2045966;70;20141;-84
2023/07/30 07:33:03;;;;;;;4.80;2.50;;;;;;;19.72;77.81;92756.78;2044991;70;20529;-84
2023/07/30 07:35:28;;;;;;;3.33;2.28;;;;;;;19.85;78.66;92758.59;2044945;70;20242;-84
2023/07/30 07:37:54;;;;;;;3.15;2.40;;;;;;;19.71;79.76;92763.91;2041848;70;20261;-84
2023/07/30 07:40:19;;;;;;;5.10;2.20;;;;;;;19.76;77.92;92765.47;2041665;70;20154;-85
2023/07/30 07:42:45;;;;;;;2.38;1.63;;;;;;;19.85;77.72;92766.44;2045079;70;20157;-84
2023/07/30 07:45:10;;;;;;;3.30;2.22;;;;;;;19.79;79.35;92761.25;2044930;70;20146;-84
2023/07/30 07:47:36;;;;;;;2.90;2.10;;;;;;;19.94;77.42;92763.13;2044883;70;20147;-84
2023/07/30 07:50:02;;;;;;;3.88;2.08;;;;;;;20.02;78.90;92760.47;2044998;70;20143;-84
2023/07/30 07:52:27;;;;;;;3.75;1.90;;;;;;;20.09;78.08;92767.06;2044974;70;20142;-83
2023/07/30 07:54:54;;;;;;;4.90;1.88;;;;;;;20.15;78.04;92763.66;2045313;70;20198;-85
2023/07/30 07:57:19;;;;;;;2.97;1.98;;;;;;;20.23;78.07;92767.44;2045155;70;20601;-84
2023/07/30 07:59:45;;;;;;;14.57;2.30;;;;;;;20.15;77.53;92783.66;2044955;70;20276;-85
2023/07/30 08:02:12;;;;;;;3.00;2.08;;;;;;;19.90;76.66;92774.44;2044965;70;20151;-84
2023/07/30 08:04:37;;;;;;;4.68;2.40;;;;;;;19.82;76.86;92776.34;2045019;70;20170;-85
2023/07/30 08:07:04;;;;;;;2.38;2.10;;;;;;;19.75;76.15;92775.44;2044522;70;20614;-85
2023/07/30 08:09:30;;;;;;;4.43;2.53;;;;;;;19.71;77.26;92781.03;2044863;70;20218;-84
2023/07/30 08:11:56;;;;;;;5.88;2.40;;;;;;;19.93;76.19;92784.53;2044855;70;20198;-85
2023/07/30 08:14:21;;;;;;;5.15;2.72;;;;;;;19.87;76.30;92781.47;2044695;70;20205;-85
2023/07/30 08:16:47;;;;;;;2.67;2.17;;;;;;;19.77;76.15;92784.06;2044989;70;20166;-85
2023/07/30 08:19:12;;;;;;;4.93;2.78;;;;;;;19.56;77.67;92777.00;2041644;70;20150;-86
2023/07/30 08:21:38;;;;;;;4.45;2.85;;;;;;;19.75;75.97;92776.19;2044949;70;20189;-85
2023/07/30 08:24:04;;;;;;;3.97;3.00;;;;;;;19.90;75.17;92768.00;2044900;70;20166;-85
2023/07/30 08:26:30;;;;;;;5.55;2.83;;;;;;;19.76;75.71;92765.47;2044639;70;20597;-85
2023/07/30 08:28:55;;;;;;;2.53;2.28;;;;;;;19.77;76.12;92758.34;2044680;70;20249;-85
2023/07/30 08:31:21;;;;;;;3.72;2.47;;;;;;;19.91;75.40;92764.47;2044808;70;20139;-85
2023/07/30 08:33:46;;;;;;;4.00;2.40;;;;;;;20.10;74.89;92768.53;2044944;70;20154;-85
2023/07/30 08:36:12;;;;;;;2.42;2.00;;;;;;;20.40;73.57;92777.19;2044921;70;20174;-84
2023/07/30 08:38:37;;;;;;;2.78;2.05;;;;;;;20.67;73.37;92769.28;2044759;70;20250;-84
2023/07/30 08:41:03;;;;;;;2.67;2.10;;;;;;;20.84;73.51;92748.22;2044974;70;20163;-85
2023/07/30 08:43:29;;;;;;;2.70;2.33;;;;;;;20.89;73.96;92752.66;2044791;70;20139;-84
2023/07/30 08:45:54;;;;;;;2.80;2.25;;;;;;;21.42;72.91;92761.72;2044709;70;20146;-86
2023/07/30 08:48:20;;;;;;;2.50;2.10;;;;;;;21.08;70.20;92750.22;2044858;70;20163;-85
2023/07/30 08:50:47;;;;;;;3.72;2.00;;;;;;;21.77;67.64;92757.44;2045355;70;20131;-83
2023/07/30 08:53:13;;;;;;;5.78;2.10;;;;;;;22.17;67.17;92745.31;2044771;70;20147;-84
2023/07/30 08:55:40;;;;;;;3.13;2.03;;;;;;;21.78;67.73;92750.28;2044716;70;20277;-85
2023/07/30 08:58:06;;;;;;;2.13;1.90;;;;;;;21.78;68.45;92751.03;2044669;70;20532;-84
2023/07/30 09:00:36;;;;;;;6.30;2.20;;;;;;;21.65;69.21;92748.59;2044723;70;20151;-86
2023/07/30 09:03:04;;;;;;;2.80;1.85;;;;;;;21.66;69.01;92753.63;2044790;70;20147;-86
2023/07/30 09:05:30;;;;;;;3.25;1.95;;;;;;;21.65;70.51;92760.78;2045815;70;20150;-86
2023/07/30 09:07:57;;;;;;;3.95;1.80;;;;;;;21.45;72.25;92755.34;2044750;70;20158;-85
2023/07/30 09:10:23;;;;;;;2.40;1.88;;;;;;;21.43;72.92;92763.88;2044669;70;20150;-87
2023/07/30 09:12:59;;;;;;;5.15;1.90;;;;;;;21.39;73.63;92768.81;2044649;70;20182;-84
2023/07/30 09:15:34;;;;;;;3.45;1.90;;;;;;;21.52;73.42;92770.53;2044776;70;20135;-85
2023/07/30 09:18:01;;;;;;;5.82;2.20;;;;;;;21.79;72.38;92763.19;2044627;70;20143;-85
2023/07/30 09:20:27;;;;;;;3.45;2.08;;;;;;;21.96;70.08;92758.53;2044659;70;20250;-85
2023/07/30 09:22:56;;;;;;;4.45;1.98;;;;;;;21.79;69.74;92760.34;2044644;70;20532;-85
2023/07/30 09:25:22;;;;;;;3.10;2.08;;;;;;;21.81;70.64;92761.13;2044813;70;20157;-84
2023/07/30 09:27:51;;;;;;;2.78;2.15;;;;;;;22.03;69.98;92762.94;2044672;70;20155;-85
2023/07/30 09:30:23;;;;;;;2.85;1.95;;;;;;;21.87;69.55;92754.78;2044486;70;20151;-86
2023/07/30 09:32:53;;;;;;;3.45;1.88;;;;;;;22.01;71.91;92757.91;2044643;70;20155;-86
2023/07/30 09:35:18;;;;;;;2.17;1.98;;;;;;;22.10;71.75;92763.81;2041287;70;20502;-86
2023/07/30 09:37:44;;;;;;;4.22;2.10;;;;;;;21.98;73.18;92775.75;2044841;70;20168;-85
2023/07/30 09:40:12;;;;;;;3.92;2.13;;;;;;;21.88;71.18;92776.28;2044570;70;20137;-85
2023/07/30 09:42:41;;;;;;;3.45;2.60;;;;;;;21.86;70.44;92770.53;2045084;70;20165;-85
2023/07/30 09:45:16;;;;;;;4.13;2.20;;;;;;;22.15;71.67;92785.44;2041676;70;20143;-86
2023/07/30 09:47:49;;;;;;;3.78;2.17;;;;;;;22.09;72.83;92786.00;2045067;70;20242;-87
2023/07/30 09:50:15;;;;;;;5.40;2.30;;;;;;;22.01;73.02;92785.84;2045133;70;20154;-85
2023/07/30 09:52:43;;;;;;;3.20;1.83;;;;;;;22.13;71.78;92780.38;2045045;70;20558;-86
2023/07/30 09:55:09;;;;;;;3.40;2.00;;;;;;;22.28;71.68;92778.50;2045098;70;20175;-86
2023/07/30 09:57:36;;;;;;;3.20;2.10;;;;;;;22.51;70.13;92759.56;2044979;70;20139;-86
2023/07/30 10:00:04;;;;;;;3.78;2.33;;;;;;;22.73;70.06;92750.59;2044950;70;20177;-86
2023/07/30 10:02:31;;;;;;;2.75;2.20;;;;;;;23.10;69.02;92749.06;2045046;70;20231;-87
2023/07/30 10:04:58;;;;;;;3.22;2.20;;;;;;;23.48;66.93;92748.88;2045119;70;20151;-86
2023/07/30 10:07:27;;;;;;;2.70;2.45;;;;;;;23.73;64.69;92749.94;2045153;70;20147;-85
2023/07/30 10:09:58;;;;;;;2.67;2.22;;;;;;;24.05;62.50;92757.50;2045257;70;20213;-86
2023/07/30 10:12:28;;;;;;;3.90;2.30;;;;;;;23.88;62.08;92747.97;2045168;70;20599;-86
2023/07/30 10:14:54;;;;;;;5.00;2.15;;;;;;;23.84;61.47;92742.16;2044971;70;20174;-85
2023/07/30 10:17:20;;;;;;;3.70;2.20;;;;;;;24.01;62.52;92738.06;2045053;70;20147;-85
2023/07/30 10:19:49;;;;;;;3.58;2.03;;;;;;;24.09;60.19;92741.00;2045196;70;20154;-86
2023/07/30 10:22:18;;;;;;;1.95;1.80;;;;;;;24.27;58.14;92754.16;2045042;70;20209;-86
2023/07/30 10:24:58;;;;;;;3.50;1.90;;;;;;;24.69;56.94;92750.25;2044965;70;20309;-87
2023/07/30 10:27:25;;;;;;;2.50;2.15;;;;;;;24.59;60.83;92748.75;2045068;70;20254;-87
2023/07/30 10:30:11;;;;;;;4.43;2.15;;;;;;;25.03;60.07;92746.94;2045168;70;20194;-88
2023/07/30 10:33:01;;;;;;;3.08;1.73;;;;;;;24.97;55.85;92746.88;2045244;70;20146;-87
2023/07/30 10:35:37;;;;;;;2.30;1.70;;;;;;;25.41;54.51;92751.56;2045279;70;20158;-87
2023/07/30 10:38:27;;;;;;;2.25;1.90;;;;;;;25.29;54.33;92747.19;2045147;70;20517;-87
2023/07/30 10:40:59;;;;;;;3.97;2.13;;;;;;;24.82;53.86;92740.31;2045126;70;20392;-87
2023/07/30 10:43:28;;;;;;;2.92;1.98;;;;;;;25.54;53.87;92739.38;2045073;70;20169;-85
2023/07/30 10:45:53;;;;;;;3.03;1.80;;;;;;;25.96;51.16;92738.16;2045579;70;20163;-87
2023/07/30 10:48:29;;;;;;;3.92;1.77;;;;;;;26.51;49.46;92731.84;2046737;70;20143;-87
2023/07/30 10:50:55;;;;;;;1.83;1.70;;;;;;;25.99;51.36;92733.13;2050968;70;20136;-88
2023/07/30 10:53:20;;;;;;;2.65;1.90;;;;;;;24.97;54.38;92733.25;2049803;70;20150;-87
2023/07/30 10:55:47;;;;;;;3.30;1.80;;;;;;;24.74;55.56;92732.34;2047804;70;20234;-88
2023/07/30 10:58:14;;;;;;;3.88;1.70;;;;;;;25.12;59.22;92722.56;2046214;70;20151;-88
2023/07/30 11:00:42;;;;;;;4.95;2.00;;;;;;;25.65;60.67;92722.84;2047468;70;20198;-89
2023/07/30 11:03:08;;;;;;;2.95;1.85;;;;;;;25.73;60.35;92725.78;2048071;70;20162;-85
2023/07/30 11:05:38;;;;;;;2.13;1.70;;;;;;;25.48;58.96;92721.34;2044660;70;20308;-85
2023/07/30 11:08:03;;;;;;;2.00;1.80;;;;;;;25.11;56.43;92718.25;2045070;70;20267;-88
2023/07/30 11:10:29;;;;;;;2.42;2.10;;;;;;;24.81;56.54;92722.31;2045314;70;20597;-87
2023/07/30 11:12:57;;;;;;;2.33;1.80;;;;;;;25.37;58.20;92722.72;2044097;70;20703;-83
2023/07/30 11:15:24;;;;;;;2.35;1.85;;;;;;;25.24;57.79;92721.91;2041365;70;20146;-85
2023/07/30 11:17:52;;;;;;;3.00;1.63;;;;;;;24.80;60.53;92712.22;2044724;70;20162;-88
2023/07/30 11:20:27;;;;;;;2.10;1.90;;;;;;;24.44;62.61;92720.53;2044529;70;20158;-84
2023/07/30 11:22:55;;;;;;;4.63;1.90;;;;;;;24.63;62.02;92715.69;2044792;70;20155;-84
2023/07/30 11:25:20;;;;;;;3.40;1.83;;;;;;;25.04;61.78;92703.03;2042054;70;20247;-87
2023/07/30 11:27:50;;;;;;;3.60;1.90;;;;;;;26.06;59.59;92697.81;2041763;70;20249;-85
2023/07/30 11:30:19;;;;;;;3.35;1.77;;;;;;;29.67;51.80;92689.28;2042545;70;20151;-84